createdAt,value
2019-05-22T00:01:21.124Z,95670.69
2019-05-22T00:03:53.410Z,95668.12
2019-05-22T00:06:26.031Z,95664.43
2019-05-22T00:08:53.770Z,95657.00
2019-05-22T00:11:22.385Z,95656.22
2019-05-22T00:13:50.469Z,95658.17
2019-05-22T00:16:21.000Z,95657.59
2019-05-22T00:18:49.934Z,95657.79
2019-05-22T00:21:17.692Z,95657.59
2019-05-22T00:23:46.239Z,95660.52
2019-05-22T00:26:14.127Z,95661.89
2019-05-22T00:28:42.345Z,95656.42
2019-05-22T00:31:10.463Z,95649.59
2019-05-22T00:33:38.649Z,95649.59
2019-05-22T00:36:06.124Z,95654.47
2019-05-22T00:38:34.280Z,95662.48
2019-05-22T00:41:04.928Z,95650.17
2019-05-22T00:43:33.927Z,95656.63
2019-05-22T00:46:07.579Z,95657.98
2019-05-22T00:48:35.313Z,95658.19
2019-05-22T00:51:17.149Z,95657.77
2019-05-22T00:53:51.125Z,95659.13
2019-05-22T00:56:24.587Z,95653.08
2019-05-22T00:58:56.467Z,95658.16
2019-05-22T01:01:26.075Z,95655.63
2019-05-22T01:03:56.141Z,95653.48
2019-05-22T01:06:25.783Z,95653.48
2019-05-22T01:08:55.446Z,95639.99
2019-05-22T01:11:25.070Z,95636.28
2019-05-22T01:13:54.031Z,95641.36
2019-05-22T01:16:22.564Z,95645.44
2019-05-22T01:18:52.393Z,95645.24
2019-05-22T01:21:21.755Z,95647.59
2019-05-22T01:23:49.617Z,95644.66
2019-05-22T01:26:18.851Z,95641.92
2019-05-22T01:28:46.617Z,95648.18
2019-05-22T01:31:16.972Z,95641.14
2019-05-22T01:33:46.374Z,95646.61
2019-05-22T01:36:19.796Z,95637.62
2019-05-22T01:38:48.014Z,95639.58
2019-05-22T01:41:21.164Z,95638.80
2019-05-22T01:43:51.111Z,95634.72
2019-05-22T01:46:20.897Z,95628.48
2019-05-22T01:48:53.305Z,95617.55
2019-05-22T01:51:21.753Z,95617.73
2019-05-22T01:53:51.113Z,95616.17
2019-05-22T01:56:20.464Z,95618.70
2019-05-22T01:58:49.429Z,95626.33
2019-05-22T02:01:20.089Z,95628.28
2019-05-22T02:03:47.436Z,95625.94
2019-05-22T02:06:17.552Z,95622.03
2019-05-22T02:08:51.302Z,95619.49
2019-05-22T02:11:22.016Z,95621.45
2019-05-22T02:14:07.469Z,95626.92
2019-05-22T02:16:35.672Z,95624.77
2019-05-22T02:19:04.720Z,95619.89
2019-05-22T02:21:33.533Z,95621.84
2019-05-22T02:24:01.228Z,95622.01
2019-05-22T02:26:30.132Z,95624.36
2019-05-22T02:28:59.657Z,95624.75
2019-05-22T02:31:29.140Z,95619.86
2019-05-22T02:33:59.427Z,95624.16
2019-05-22T02:36:26.941Z,95624.36
2019-05-22T02:38:54.648Z,95628.07
2019-05-22T02:41:24.368Z,95629.83
2019-05-22T02:43:52.112Z,95626.53
2019-05-22T02:46:20.765Z,95626.72
2019-05-22T02:48:48.700Z,95620.28
2019-05-22T02:51:16.555Z,95628.27
2019-05-22T02:53:44.067Z,95629.24
2019-05-22T02:56:11.956Z,95636.28
2019-05-22T02:58:39.748Z,95632.17
2019-05-22T03:01:08.591Z,95627.29
2019-05-22T03:03:36.084Z,95634.72
2019-05-22T03:06:09.452Z,95636.66
2019-05-22T03:09:04.852Z,95631.39
2019-05-22T03:11:36.664Z,95623.38
2019-05-22T03:14:05.420Z,95628.27
2019-05-22T03:16:53.581Z,95626.50
2019-05-22T03:19:43.244Z,95628.46
2019-05-22T03:22:48.142Z,95629.66
2019-05-22T03:25:17.204Z,95622.23
2019-05-22T03:27:49.653Z,95620.86
2019-05-22T03:30:32.203Z,95626.13
2019-05-22T03:33:01.010Z,95621.23
2019-05-22T03:35:34.645Z,95629.86
2019-05-22T03:38:03.826Z,95635.33
2019-05-22T03:40:34.595Z,95639.44
2019-05-22T03:43:23.981Z,95642.33
2019-05-22T03:45:53.992Z,95646.63
2019-05-22T03:48:23.239Z,95645.86
2019-05-22T03:50:54.935Z,95648.98
2019-05-22T03:53:22.670Z,95644.11
2019-05-22T03:55:50.935Z,95645.87
2019-05-22T03:58:21.545Z,95645.88
2019-05-22T04:00:51.681Z,95652.69
2019-05-22T04:03:20.723Z,95644.88
2019-05-22T04:05:49.551Z,95653.64
2019-05-22T04:08:19.206Z,95656.58
2019-05-22T04:11:04.613Z,95650.52
2019-05-22T04:13:32.723Z,95662.44
2019-05-22T04:16:01.730Z,95660.48
2019-05-22T04:18:30.427Z,95662.64
2019-05-22T04:20:59.857Z,95665.56
2019-05-22T04:23:27.122Z,95662.44
2019-05-22T04:25:57.217Z,95661.86
2019-05-22T04:28:25.351Z,95658.12
2019-05-22T04:30:53.058Z,95668.87
2019-05-22T04:33:21.157Z,95660.86
2019-05-22T04:35:48.547Z,95672.36
2019-05-22T04:38:17.066Z,95665.33
2019-05-22T04:40:47.288Z,95668.26
2019-05-22T04:43:15.336Z,95672.36
2019-05-22T04:45:44.582Z,95671.75
2019-05-22T04:48:12.157Z,95668.23
2019-05-22T04:50:40.187Z,95671.55
2019-05-22T04:53:07.947Z,95675.63
2019-05-22T04:55:35.294Z,95671.72
2019-05-22T04:58:10.847Z,95675.21
2019-05-22T05:00:38.133Z,95674.04
2019-05-22T05:03:06.215Z,95675.99
2019-05-22T05:05:45.112Z,95672.25
2019-05-22T05:08:14.275Z,95669.70
2019-05-22T05:10:44.822Z,95671.66
2019-05-22T05:13:12.082Z,95670.84
2019-05-22T05:15:39.433Z,95672.02
2019-05-22T05:18:06.801Z,95671.63
2019-05-22T05:20:34.143Z,95670.84
2019-05-22T05:23:01.314Z,95670.06
2019-05-22T05:25:28.677Z,95678.47
2019-05-22T05:27:58.410Z,95676.32
2019-05-22T05:30:26.989Z,95678.47
2019-05-22T05:32:55.487Z,95675.73
2019-05-22T05:35:23.272Z,95677.49
2019-05-22T05:37:51.643Z,95674.75
2019-05-22T05:40:34.403Z,95677.88
2019-05-22T05:43:03.339Z,95682.19
2019-05-22T05:45:32.552Z,95678.70
2019-05-22T05:48:03.396Z,95683.03
2019-05-22T05:50:38.922Z,95690.66
2019-05-22T05:52:59.743Z,95691.64
2019-05-22T05:56:00.376Z,95699.27
2019-05-22T05:58:29.052Z,95693.98
2019-05-22T06:01:08.747Z,95697.08
2019-05-22T06:03:41.300Z,95703.11
2019-05-22T06:06:23.872Z,95701.13
2019-05-22T06:08:57.528Z,95700.89
2019-05-22T06:11:42.265Z,95703.59
2019-05-22T06:14:20.161Z,95702.78
2019-05-22T06:17:11.692Z,95675.06
2019-05-22T06:19:48.075Z,95700.19
2019-05-22T06:22:15.801Z,95699.02
2019-05-22T06:24:55.665Z,95703.13
2019-05-22T06:27:24.693Z,95707.04
2019-05-22T06:30:04.371Z,95708.25
2019-05-22T06:33:09.111Z,95707.66
2019-05-22T06:35:37.834Z,95707.47
2019-05-22T06:38:22.072Z,95711.15
2019-05-22T06:40:49.116Z,95711.88
2019-05-22T06:43:29.882Z,95710.06
2019-05-22T06:45:57.324Z,95708.69
2019-05-22T06:48:24.633Z,95708.29
2019-05-22T06:50:51.846Z,95705.16
2019-05-22T06:53:19.694Z,95707.71
2019-05-22T06:55:48.726Z,95713.00
2019-05-22T06:58:16.151Z,95714.38
2019-05-22T07:00:44.045Z,95714.17
2019-05-22T07:03:11.904Z,95719.66
2019-05-22T07:05:40.839Z,95719.49
2019-05-22T07:08:08.765Z,95719.11
2019-05-22T07:10:38.493Z,95724.40
2019-05-22T07:13:08.886Z,95727.76
2019-05-22T07:15:41.264Z,95727.34
2019-05-22T07:18:12.649Z,95732.44
2019-05-22T07:20:39.560Z,95738.31
2019-05-22T07:23:08.663Z,95730.48
2019-05-22T07:25:36.850Z,95743.01
2019-05-22T07:28:05.317Z,95746.14
2019-05-22T07:30:33.207Z,95745.39
2019-05-22T07:33:00.660Z,95744.22
2019-05-22T07:35:45.683Z,95745.79
2019-05-22T07:37:57.525Z,95746.96
2019-05-22T07:40:25.253Z,95749.15
2019-05-22T07:42:52.853Z,95744.84
2019-05-22T07:45:25.457Z,95747.16
2019-05-22T07:47:54.209Z,95754.75
2019-05-22T07:50:22.410Z,95753.56
2019-05-22T07:52:50.133Z,95751.32
2019-05-22T07:55:20.534Z,95754.20
2019-05-22T07:57:52.239Z,95751.36
2019-05-22T08:00:21.192Z,95754.59
2019-05-22T08:02:49.711Z,95757.00
2019-05-22T08:05:18.461Z,95759.55
2019-05-22T08:07:46.695Z,95758.42
2019-05-22T08:10:15.200Z,95762.31
2019-05-22T08:12:42.526Z,95766.23
2019-05-22T08:15:11.993Z,95772.34
2019-05-22T08:17:39.804Z,95771.19
2019-05-22T08:20:07.703Z,95774.12
2019-05-22T08:22:37.221Z,95779.95
2019-05-22T08:25:07.224Z,95780.98
2019-05-22T08:27:35.204Z,95781.59
2019-05-22T08:30:08.163Z,95781.59
2019-05-22T08:32:36.084Z,95783.76
2019-05-22T08:35:08.801Z,95784.77
2019-05-22T08:37:38.770Z,95784.67
2019-05-22T08:40:13.248Z,95787.80
2019-05-22T08:42:41.641Z,95792.05
2019-05-22T08:45:10.440Z,95789.66
2019-05-22T08:47:38.810Z,95792.98
2019-05-22T08:50:09.042Z,95794.13
2019-05-22T08:52:36.995Z,95797.66
2019-05-22T08:55:06.116Z,95798.04
2019-05-22T08:57:34.771Z,95800.69
2019-05-22T09:00:05.812Z,95806.50
2019-05-22T09:02:33.460Z,95810.97
2019-05-22T09:05:01.059Z,95815.80
2019-05-22T09:07:28.892Z,95817.55
2019-05-22T09:09:57.084Z,95828.56
2019-05-22T09:12:25.093Z,95820.72
2019-05-22T09:14:52.259Z,95827.62
2019-05-22T09:17:19.761Z,95825.50
2019-05-22T09:19:48.347Z,95826.50
2019-05-22T09:22:16.282Z,95829.66
2019-05-22T09:24:44.981Z,95831.03
2019-05-22T09:27:13.281Z,95829.44
2019-05-22T09:29:42.087Z,95833.69
2019-05-22T09:32:09.724Z,95838.72
2019-05-22T09:34:37.747Z,95837.91
2019-05-22T09:37:05.001Z,95837.91
2019-05-22T09:39:32.102Z,95844.68
2019-05-22T09:41:59.212Z,95841.83
2019-05-22T09:44:26.980Z,95847.78
2019-05-22T09:46:54.998Z,95846.30
2019-05-22T09:49:24.126Z,95850.69
2019-05-22T09:51:52.457Z,95850.09
2019-05-22T09:54:19.402Z,95856.70
2019-05-22T09:56:46.636Z,95856.27
2019-05-22T09:59:13.878Z,95862.63
2019-05-22T10:01:41.414Z,95861.77
2019-05-22T10:04:08.733Z,95863.08
2019-05-22T10:06:36.586Z,95871.38
2019-05-22T10:09:06.513Z,95866.16
2019-05-22T10:11:33.962Z,95860.54
2019-05-22T10:14:02.095Z,95866.31
2019-05-22T10:16:29.454Z,95870.20
2019-05-22T10:18:56.457Z,95866.98
2019-05-22T10:21:24.704Z,95872.39
2019-05-22T10:23:53.888Z,95863.00
2019-05-22T10:26:23.919Z,95860.72
2019-05-22T10:28:51.830Z,95862.25
2019-05-22T10:31:21.845Z,95859.25
2019-05-22T10:33:51.865Z,95864.77
2019-05-22T10:36:18.932Z,95861.86
2019-05-22T10:38:46.203Z,95868.47
2019-05-22T10:41:14.105Z,95862.30
2019-05-22T10:43:41.691Z,95871.97
2019-05-22T10:46:10.459Z,95857.09
2019-05-22T10:48:40.255Z,95865.46
2019-05-22T10:51:07.033Z,95864.33
2019-05-22T10:53:35.964Z,95869.96
2019-05-22T10:56:03.567Z,95872.13
2019-05-22T10:58:30.732Z,95869.18
2019-05-22T11:00:58.792Z,95875.31
2019-05-22T11:03:26.480Z,95869.61
2019-05-22T11:06:06.307Z,95875.31
2019-05-22T11:08:22.679Z,95874.46
2019-05-22T11:10:50.051Z,95869.53
2019-05-22T11:13:17.704Z,95878.61
2019-05-22T11:15:45.719Z,95874.95
2019-05-22T11:18:13.951Z,95872.55
2019-05-22T11:20:41.867Z,95877.11
2019-05-22T11:23:09.666Z,95870.38
2019-05-22T11:25:37.392Z,95878.24
2019-05-22T11:28:05.137Z,95885.45
2019-05-22T11:30:32.648Z,95884.55
2019-05-22T11:33:00.582Z,95883.30
2019-05-22T11:35:28.489Z,95893.09
2019-05-22T11:37:56.162Z,95892.44
2019-05-22T11:40:24.765Z,95896.86
2019-05-22T11:42:53.222Z,95901.08
2019-05-22T11:45:21.625Z,95904.34
2019-05-22T11:47:50.094Z,95901.89
2019-05-22T11:50:17.403Z,95906.51
2019-05-22T11:52:45.349Z,95909.17
2019-05-22T11:55:13.975Z,95906.80
2019-05-22T11:57:42.682Z,95904.24
2019-05-22T12:00:11.431Z,95906.80
2019-05-22T12:02:38.950Z,95911.08
2019-05-22T12:05:08.398Z,95912.49
2019-05-22T12:07:39.794Z,95912.27
2019-05-22T12:10:07.098Z,95913.02
2019-05-22T12:12:36.823Z,95913.31
2019-05-22T12:15:08.563Z,95914.63
2019-05-22T12:17:38.952Z,95918.68
2019-05-22T12:20:09.754Z,95922.27
2019-05-22T12:22:37.294Z,95919.80
2019-05-22T12:25:05.861Z,95924.97
2019-05-22T12:27:33.541Z,95928.80
2019-05-22T12:30:04.326Z,95930.24
2019-05-22T12:32:31.892Z,95938.99
2019-05-22T12:34:59.292Z,95935.81
2019-05-22T12:37:27.302Z,95937.98
2019-05-22T12:39:55.452Z,95940.55
2019-05-22T12:42:24.260Z,95941.45
2019-05-22T12:44:51.462Z,95933.12
2019-05-22T12:47:20.180Z,95941.50
2019-05-22T12:50:07.389Z,95929.63
2019-05-22T12:52:36.075Z,95936.44
2019-05-22T12:55:05.295Z,95942.40
2019-05-22T12:57:33.077Z,95942.25
2019-05-22T13:00:02.484Z,95950.58
2019-05-22T13:02:30.523Z,95960.44
2019-05-22T13:04:58.716Z,95959.64
2019-05-22T13:14:36.655Z,95968.70
2019-05-22T13:17:07.312Z,95966.19
2019-05-22T13:19:36.590Z,95969.05
2019-05-22T13:22:08.711Z,95970.53
2019-05-22T13:24:36.407Z,95967.26
2019-05-22T13:45:32.659Z,95964.06
2019-05-22T13:47:59.990Z,95967.76
2019-05-22T13:50:28.986Z,95969.59
2019-05-22T13:53:00.050Z,95970.89
2019-05-22T13:55:28.678Z,95973.98
2019-05-22T13:57:56.572Z,95980.38
2019-05-22T14:00:24.621Z,95982.20
2019-05-22T14:02:52.366Z,95986.83
2019-05-22T14:05:20.441Z,95987.52
2019-05-22T14:07:48.346Z,95994.50
2019-05-22T14:10:16.924Z,95986.33
2019-05-22T14:12:44.562Z,95990.20
2019-05-22T14:15:14.487Z,95981.28
2019-05-22T14:17:42.020Z,95980.28
2019-05-22T14:20:10.194Z,95980.81
2019-05-22T14:22:37.865Z,95979.21
2019-05-22T14:25:06.801Z,95983.91
2019-05-22T14:27:34.523Z,95987.00
2019-05-22T14:30:05.125Z,95982.30
2019-05-22T14:32:32.780Z,95986.77
2019-05-22T14:35:00.086Z,95984.31
2019-05-22T14:37:27.623Z,95982.53
2019-05-22T14:40:06.069Z,95973.59
2019-05-22T14:42:33.532Z,95971.63
2019-05-22T14:45:00.961Z,95973.41
2019-05-22T14:47:28.310Z,95969.34
2019-05-22T14:49:55.603Z,95971.36
2019-05-22T14:52:23.345Z,95971.95
2019-05-22T14:54:50.848Z,95972.73
2019-05-22T14:57:18.880Z,95964.25
2019-05-22T14:59:45.874Z,95966.59
2019-05-22T15:02:14.231Z,95966.59
2019-05-22T15:04:41.628Z,95964.84
2019-05-22T15:07:09.083Z,95966.52
2019-05-22T15:09:36.674Z,95972.73
2019-05-22T15:12:04.012Z,95976.44
2019-05-22T15:14:31.502Z,95983.67
2019-05-22T15:16:58.534Z,96013.73
2019-05-22T15:19:26.115Z,96045.97
2019-05-22T15:21:53.582Z,96078.38
2019-05-22T15:24:21.832Z,96094.15
2019-05-22T15:26:48.955Z,96098.56
2019-05-22T15:29:17.315Z,96075.48
2019-05-22T15:31:44.476Z,96061.13
2019-05-22T15:34:13.396Z,96058.30
2019-05-22T15:36:41.423Z,96055.78
2019-05-22T15:39:11.177Z,96067.16
2019-05-22T15:41:38.931Z,96065.23
2019-05-22T15:44:06.651Z,96072.86
2019-05-22T15:46:34.632Z,96069.33
2019-05-22T15:49:05.024Z,96088.11
2019-05-22T15:51:33.087Z,96090.63
2019-05-22T15:54:04.926Z,96084.16
2019-05-22T15:56:33.382Z,96083.55
2019-05-22T15:59:03.281Z,96092.54
2019-05-22T16:01:33.317Z,96098.58
2019-05-22T16:04:01.725Z,96106.98
2019-05-22T16:06:28.929Z,96111.23
2019-05-22T16:08:56.722Z,96120.03
2019-05-22T16:11:27.058Z,96129.41
2019-05-22T16:13:57.365Z,96125.86
2019-05-22T16:16:26.399Z,96123.13
2019-05-22T16:18:59.470Z,96122.31
2019-05-22T16:21:27.815Z,96123.07
2019-05-22T16:23:56.608Z,96120.50
2019-05-22T16:26:24.265Z,96115.62
2019-05-22T16:28:51.926Z,96127.17
2019-05-22T16:31:20.695Z,96123.65
2019-05-22T16:33:51.204Z,96121.53
2019-05-22T16:36:19.668Z,96121.70
2019-05-22T16:38:47.460Z,96127.38
2019-05-22T16:41:14.765Z,96125.80
2019-05-22T16:43:49.911Z,96124.27
2019-05-22T16:46:16.036Z,96119.75
2019-05-22T16:48:46.272Z,96119.34
2019-05-22T16:51:15.519Z,96118.15
2019-05-22T16:53:54.527Z,96127.89
2019-05-22T16:56:22.850Z,96117.33
2019-05-22T16:58:50.927Z,96119.86
2019-05-22T17:01:20.792Z,96112.64
2019-05-22T17:03:54.421Z,96114.56
2019-05-22T17:06:23.071Z,96122.16
2019-05-22T17:08:52.679Z,96122.70
2019-05-22T17:11:20.604Z,96120.75
2019-05-22T17:13:48.406Z,96126.80
2019-05-22T17:16:16.591Z,96124.45
2019-05-22T17:18:47.652Z,96126.80
2019-05-22T17:21:13.183Z,96128.37
2019-05-22T17:23:40.433Z,96130.94
2019-05-22T17:26:08.211Z,96133.12
2019-05-22T17:28:36.139Z,96141.57
2019-05-22T17:31:04.464Z,96139.83
2019-05-22T17:33:32.829Z,96146.30
2019-05-22T17:36:00.757Z,96150.63
2019-05-22T17:38:29.053Z,96159.42
2019-05-22T17:40:59.176Z,96159.25
2019-05-22T17:43:28.339Z,96153.78
2019-05-22T17:45:56.679Z,96156.89
2019-05-22T17:48:24.324Z,96152.99
2019-05-22T17:50:52.128Z,96149.44
2019-05-22T17:53:19.728Z,96148.45
2019-05-22T17:55:49.028Z,96152.89
2019-05-22T17:58:16.166Z,96158.73
2019-05-22T18:00:50.912Z,96165.34
2019-05-22T18:03:18.882Z,96160.03
2019-05-22T18:05:47.017Z,96164.30
2019-05-22T18:08:14.549Z,96169.57
2019-05-22T18:10:45.739Z,96169.36
2019-05-22T18:13:13.579Z,96164.88
2019-05-22T18:15:41.234Z,96167.98
2019-05-22T18:18:10.094Z,96160.95
2019-05-22T18:20:43.375Z,96163.69
2019-05-22T18:23:07.756Z,96167.58
2019-05-22T18:25:35.306Z,96169.73
2019-05-22T18:28:04.330Z,96169.53
2019-05-22T18:30:34.076Z,96175.37
2019-05-22T18:33:01.820Z,96188.09
2019-05-22T18:35:29.071Z,96188.30
2019-05-22T18:37:56.340Z,96198.48
2019-05-22T18:40:23.457Z,96198.87
2019-05-22T18:42:50.881Z,96204.34
2019-05-22T18:45:19.745Z,96213.91
2019-05-22T18:47:48.000Z,96209.81
2019-05-22T18:50:16.129Z,96207.69
2019-05-22T18:52:49.076Z,96218.84
2019-05-22T18:55:17.535Z,96223.69
2019-05-22T18:57:45.853Z,96230.33
2019-05-22T19:00:16.086Z,96228.58
2019-05-22T19:02:43.802Z,96232.47
2019-05-22T19:05:11.381Z,96228.33
2019-05-22T19:07:38.557Z,96227.33
2019-05-22T19:10:06.150Z,96230.05
2019-05-22T19:12:33.626Z,96235.69
2019-05-22T19:15:00.791Z,96231.38
2019-05-22T19:17:28.526Z,96237.42
2019-05-22T19:19:55.852Z,96235.27
2019-05-22T19:22:24.166Z,96232.16
2019-05-22T19:24:51.356Z,96232.69
2019-05-22T19:27:18.483Z,96231.27
2019-05-22T19:29:45.756Z,96233.98
2019-05-22T19:32:13.114Z,96240.56
2019-05-22T19:34:40.302Z,96249.72
2019-05-22T19:37:07.315Z,96255.74
2019-05-22T19:39:36.921Z,96252.80
2019-05-22T19:42:05.717Z,96253.75
2019-05-22T19:44:33.822Z,96250.42
2019-05-22T19:47:00.993Z,96252.89
2019-05-22T19:49:29.633Z,96258.13
2019-05-22T19:51:57.258Z,96254.56
2019-05-22T19:54:24.683Z,96253.97
2019-05-22T19:56:52.545Z,96247.64
2019-05-22T19:59:20.104Z,96249.72
2019-05-22T20:01:47.258Z,96264.69
2019-05-22T20:04:14.666Z,96267.58
2019-05-22T20:06:42.525Z,96268.73
2019-05-22T20:09:11.241Z,96262.52
2019-05-22T20:11:39.461Z,96270.28
2019-05-22T20:14:07.716Z,96267.71
2019-05-22T20:16:35.293Z,96274.33
2019-05-22T20:19:02.613Z,96275.48
2019-05-22T20:21:30.216Z,96277.05
2019-05-22T20:23:57.578Z,96280.94
2019-05-22T20:26:24.794Z,96278.03
2019-05-22T20:28:53.823Z,96275.66
2019-05-22T20:31:21.348Z,96271.78
2019-05-22T20:33:49.027Z,96270.44
2019-05-22T20:36:16.962Z,96271.28
2019-05-22T20:38:44.694Z,96263.27
2019-05-22T20:41:12.050Z,96271.88
2019-05-22T20:43:39.838Z,96271.31
2019-05-22T20:46:07.512Z,96276.41
2019-05-22T20:48:34.827Z,96276.25
2019-05-22T20:51:03.086Z,96277.03
2019-05-22T20:53:32.421Z,96277.64
2019-05-22T20:56:00.535Z,96281.95
2019-05-22T20:58:30.106Z,96279.00
2019-05-22T21:00:57.798Z,96285.25
2019-05-22T21:03:25.853Z,96276.64
2019-05-22T21:05:55.406Z,96289.52
2019-05-22T21:08:23.852Z,96282.08
2019-05-22T21:10:51.901Z,96284.75
2019-05-22T21:13:19.219Z,96284.73
2019-05-22T21:15:46.891Z,96280.79
2019-05-22T21:18:14.540Z,96288.17
2019-05-22T21:20:54.076Z,96283.44
2019-05-22T21:23:13.168Z,96282.20
2019-05-22T21:25:40.219Z,96283.30
2019-05-22T21:28:07.587Z,96288.16
2019-05-22T21:30:35.608Z,96286.15
2019-05-22T21:33:03.981Z,96285.15
2019-05-22T21:35:31.325Z,96289.82
2019-05-22T21:37:58.758Z,96290.61
2019-05-22T21:40:25.977Z,96283.97
2019-05-22T21:42:54.523Z,96294.88
2019-05-22T21:45:22.230Z,96290.58
2019-05-22T21:47:50.070Z,96286.48
2019-05-22T21:50:18.606Z,96290.16
2019-05-22T21:52:46.239Z,96281.00
2019-05-22T21:55:15.541Z,96299.83
2019-05-22T21:57:43.785Z,96299.98
2019-05-22T22:00:40.136Z,96291.55
2019-05-22T22:03:11.357Z,96302.13
2019-05-22T22:05:40.107Z,96300.09
2019-05-22T22:08:08.571Z,96300.49
2019-05-22T22:10:36.525Z,96295.76
2019-05-22T22:13:07.761Z,96294.76
2019-05-22T22:15:42.493Z,96300.22
2019-05-22T22:18:11.598Z,96297.27
2019-05-22T22:20:39.347Z,96297.06
2019-05-22T22:23:07.216Z,96296.30
2019-05-22T22:25:35.332Z,96299.61
2019-05-22T22:28:02.634Z,96304.48
2019-05-22T22:30:29.723Z,96305.86
2019-05-22T22:33:00.752Z,96300.76
2019-05-22T22:35:28.567Z,96298.03
2019-05-22T22:37:56.091Z,96307.37
2019-05-22T22:40:26.799Z,96311.46
2019-05-22T22:42:53.834Z,96309.52
2019-05-22T22:45:41.838Z,96301.12
2019-05-22T22:48:09.835Z,96299.97
2019-05-22T22:50:37.725Z,96303.27
2019-05-22T22:53:05.848Z,96301.70
2019-05-22T22:55:33.924Z,96309.24
2019-05-22T22:58:16.121Z,96310.39
2019-05-22T23:00:32.524Z,96310.82
2019-05-22T23:03:00.816Z,96309.24
2019-05-22T23:05:28.535Z,96283.34
2019-05-22T23:07:59.268Z,96317.43
2019-05-22T23:10:26.585Z,96320.16
2019-05-22T23:12:54.112Z,96320.16
2019-05-22T23:15:21.727Z,96320.37
2019-05-22T23:17:50.010Z,96328.19
2019-05-22T23:20:16.952Z,96299.77
2019-05-22T23:22:43.671Z,96311.03
2019-05-22T23:25:11.143Z,96314.13
2019-05-22T23:27:38.951Z,96307.88
2019-05-22T23:30:09.612Z,96319.76
2019-05-22T23:32:38.420Z,96294.14
2019-05-22T23:35:06.981Z,96294.14
2019-05-22T23:37:35.528Z,96305.84
2019-05-22T23:40:06.323Z,96291.42
2019-05-22T23:42:39.103Z,96291.42
2019-05-22T23:45:14.688Z,96307.38
2019-05-22T23:48:03.201Z,96313.41
2019-05-22T23:50:33.618Z,96304.44
2019-05-22T23:53:01.834Z,96292.72
2019-05-22T23:55:29.866Z,96313.56
2019-05-22T23:57:57.868Z,96291.73
